sensor_id;sensor_type;location;lat;lon;timestamp;P1;durP1;ratioP1;P2;durP2;ratioP2
66741;SDS011;53654;54.152;19.432;2023-12-20T00:01:22;4.30;;;4.10;;
66741;SDS011;53654;54.152;19.432;2023-12-20T00:03:51;4.20;;;3.90;;
66741;SDS011;53654;54.152;19.432;2023-12-20T00:06:19;4.00;;;3.80;;
66741;SDS011;53654;54.152;19.432;2023-12-20T00:08:48;4.30;;;4.10;;
66741;SDS011;53654;54.152;19.432;2023-12-20T00:11:16;4.10;;;3.90;;
66741;SDS011;53654;54.152;19.432;2023-12-20T00:13:44;4.10;;;3.90;;
66741;SDS011;53654;54.152;19.432;2023-12-20T00:16:16;4.10;;;3.80;;
66741;SDS011;53654;54.152;19.432;2023-12-20T00:18:44;3.90;;;3.70;;
66741;SDS011;53654;54.152;19.432;2023-12-20T00:21:12;4.30;;;4.10;;
66741;SDS011;53654;54.152;19.432;2023-12-20T00:23:40;4.10;;;3.90;;
66741;SDS011;53654;54.152;19.432;2023-12-20T00:26:09;3.90;;;3.70;;
66741;SDS011;53654;54.152;19.432;2023-12-20T00:28:37;4.20;;;4.00;;
66741;SDS011;53654;54.152;19.432;2023-12-20T00:31:05;4.30;;;4.00;;
66741;SDS011;53654;54.152;19.432;2023-12-20T00:33:34;4.30;;;4.00;;
66741;SDS011;53654;54.152;19.432;2023-12-20T00:36:02;4.30;;;4.10;;
66741;SDS011;53654;54.152;19.432;2023-12-20T00:38:31;4.90;;;4.60;;
66741;SDS011;53654;54.152;19.432;2023-12-20T00:40:59;4.70;;;4.40;;
66741;SDS011;53654;54.152;19.432;2023-12-20T00:43:28;5.20;;;4.80;;
66741;SDS011;53654;54.152;19.432;2023-12-20T00:45:57;5.00;;;4.70;;
66741;SDS011;53654;54.152;19.432;2023-12-20T00:48:25;5.70;;;5.30;;
66741;SDS011;53654;54.152;19.432;2023-12-20T00:50:58;5.50;;;5.10;;
66741;SDS011;53654;54.152;19.432;2023-12-20T00:53:26;5.60;;;5.20;;
66741;SDS011;53654;54.152;19.432;2023-12-20T00:55:54;5.60;;;5.20;;
66741;SDS011;53654;54.152;19.432;2023-12-20T00:58:22;5.70;;;5.30;;
66741;SDS011;53654;54.152;19.432;2023-12-20T01:00:50;5.70;;;5.30;;
66741;SDS011;53654;54.152;19.432;2023-12-20T01:03:19;6.50;;;6.10;;
66741;SDS011;53654;54.152;19.432;2023-12-20T01:05:47;6.80;;;6.30;;
66741;SDS011;53654;54.152;19.432;2023-12-20T01:08:16;7.20;;;6.70;;
66741;SDS011;53654;54.152;19.432;2023-12-20T01:10:44;7.20;;;6.80;;
66741;SDS011;53654;54.152;19.432;2023-12-20T01:13:12;7.80;;;7.30;;
66741;SDS011;53654;54.152;19.432;2023-12-20T01:15:40;8.80;;;8.20;;
66741;SDS011;53654;54.152;19.432;2023-12-20T01:18:09;9.00;;;8.30;;
66741;SDS011;53654;54.152;19.432;2023-12-20T01:20:37;9.50;;;8.70;;
66741;SDS011;53654;54.152;19.432;2023-12-20T01:23:05;9.20;;;8.60;;
66741;SDS011;53654;54.152;19.432;2023-12-20T01:25:34;9.60;;;9.00;;
66741;SDS011;53654;54.152;19.432;2023-12-20T01:28:02;10.50;;;9.80;;
66741;SDS011;53654;54.152;19.432;2023-12-20T01:30:31;10.00;;;9.30;;
66741;SDS011;53654;54.152;19.432;2023-12-20T01:33:00;10.40;;;9.60;;
66741;SDS011;53654;54.152;19.432;2023-12-20T01:35:29;10.50;;;9.80;;
66741;SDS011;53654;54.152;19.432;2023-12-20T01:37:57;11.10;;;10.30;;
66741;SDS011;53654;54.152;19.432;2023-12-20T01:40:25;11.10;;;10.30;;
66741;SDS011;53654;54.152;19.432;2023-12-20T01:43:07;12.30;;;11.40;;
66741;SDS011;53654;54.152;19.432;2023-12-20T01:45:36;12.30;;;11.40;;
66741;SDS011;53654;54.152;19.432;2023-12-20T01:48:04;11.20;;;10.40;;
66741;SDS011;53654;54.152;19.432;2023-12-20T01:50:35;9.60;;;8.90;;
66741;SDS011;53654;54.152;19.432;2023-12-20T01:53:05;9.40;;;8.70;;
66741;SDS011;53654;54.152;19.432;2023-12-20T01:55:38;8.20;;;7.60;;
66741;SDS011;53654;54.152;19.432;2023-12-20T01:58:08;5.60;;;5.30;;
66741;SDS011;53654;54.152;19.432;2023-12-20T02:00:38;5.40;;;5.00;;
66741;SDS011;53654;54.152;19.432;2023-12-20T02:03:06;4.30;;;4.00;;
66741;SDS011;53654;54.152;19.432;2023-12-20T02:05:35;4.50;;;4.20;;
66741;SDS011;53654;54.152;19.432;2023-12-20T02:08:04;4.30;;;4.10;;
66741;SDS011;53654;54.152;19.432;2023-12-20T02:10:34;2.20;;;2.10;;
66741;SDS011;53654;54.152;19.432;2023-12-20T02:13:02;1.90;;;1.80;;
66741;SDS011;53654;54.152;19.432;2023-12-20T02:15:32;1.20;;;1.20;;
66741;SDS011;53654;54.152;19.432;2023-12-20T02:18:00;0.90;;;0.90;;
66741;SDS011;53654;54.152;19.432;2023-12-20T02:20:28;0.90;;;0.90;;
66741;SDS011;53654;54.152;19.432;2023-12-20T02:22:56;0.90;;;0.90;;
66741;SDS011;53654;54.152;19.432;2023-12-20T02:25:24;1.00;;;1.00;;
66741;SDS011;53654;54.152;19.432;2023-12-20T02:27:53;1.40;;;1.30;;
66741;SDS011;53654;54.152;19.432;2023-12-20T02:30:21;1.10;;;1.10;;
66741;SDS011;53654;54.152;19.432;2023-12-20T02:32:49;1.00;;;1.00;;
66741;SDS011;53654;54.152;19.432;2023-12-20T02:35:19;0.90;;;0.90;;
66741;SDS011;53654;54.152;19.432;2023-12-20T02:37:47;0.80;;;0.80;;
66741;SDS011;53654;54.152;19.432;2023-12-20T02:40:15;0.90;;;0.80;;
66741;SDS011;53654;54.152;19.432;2023-12-20T02:42:43;1.30;;;1.20;;
66741;SDS011;53654;54.152;19.432;2023-12-20T02:45:12;1.70;;;1.60;;
66741;SDS011;53654;54.152;19.432;2023-12-20T02:47:40;3.20;;;2.90;;
66741;SDS011;53654;54.152;19.432;2023-12-20T02:50:08;3.90;;;3.60;;
66741;SDS011;53654;54.152;19.432;2023-12-20T02:52:36;4.10;;;3.80;;
66741;SDS011;53654;54.152;19.432;2023-12-20T02:55:04;4.80;;;4.50;;
66741;SDS011;53654;54.152;19.432;2023-12-20T02:57:33;4.80;;;4.50;;
66741;SDS011;53654;54.152;19.432;2023-12-20T03:00:04;4.70;;;4.30;;
66741;SDS011;53654;54.152;19.432;2023-12-20T03:02:33;4.90;;;4.50;;
66741;SDS011;53654;54.152;19.432;2023-12-20T03:05:01;4.30;;;4.00;;
66741;SDS011;53654;54.152;19.432;2023-12-20T03:07:29;3.20;;;2.90;;
66741;SDS011;53654;54.152;19.432;2023-12-20T03:09:58;3.30;;;3.00;;
66741;SDS011;53654;54.152;19.432;2023-12-20T03:12:46;3.70;;;3.40;;
66741;SDS011;53654;54.152;19.432;2023-12-20T03:15:14;6.30;;;5.80;;
66741;SDS011;53654;54.152;19.432;2023-12-20T03:17:43;8.90;;;8.20;;
66741;SDS011;53654;54.152;19.432;2023-12-20T03:20:12;12.90;;;12.00;;
66741;SDS011;53654;54.152;19.432;2023-12-20T03:22:40;22.10;;;20.50;;
66741;SDS011;53654;54.152;19.432;2023-12-20T03:25:08;21.10;;;19.50;;
66741;SDS011;53654;54.152;19.432;2023-12-20T03:27:37;20.60;;;19.10;;
66741;SDS011;53654;54.152;19.432;2023-12-20T03:30:06;17.10;;;15.80;;
66741;SDS011;53654;54.152;19.432;2023-12-20T03:32:35;17.00;;;15.70;;
66741;SDS011;53654;54.152;19.432;2023-12-20T03:35:04;13.70;;;12.80;;
66741;SDS011;53654;54.152;19.432;2023-12-20T03:37:33;14.70;;;13.60;;
66741;SDS011;53654;54.152;19.432;2023-12-20T03:40:01;14.00;;;12.90;;
66741;SDS011;53654;54.152;19.432;2023-12-20T03:42:29;12.40;;;11.50;;
66741;SDS011;53654;54.152;19.432;2023-12-20T03:44:57;9.50;;;8.70;;
66741;SDS011;53654;54.152;19.432;2023-12-20T03:47:26;9.30;;;8.60;;
66741;SDS011;53654;54.152;19.432;2023-12-20T03:49:54;7.10;;;6.60;;
66741;SDS011;53654;54.152;19.432;2023-12-20T03:52:22;5.40;;;5.00;;
66741;SDS011;53654;54.152;19.432;2023-12-20T03:54:51;2.80;;;2.60;;
66741;SDS011;53654;54.152;19.432;2023-12-20T03:57:19;2.40;;;2.20;;
66741;SDS011;53654;54.152;19.432;2023-12-20T03:59:47;2.70;;;2.10;;
66741;SDS011;53654;54.152;19.432;2023-12-20T04:02:15;3.30;;;2.20;;
66741;SDS011;53654;54.152;19.432;2023-12-20T04:04:43;3.10;;;2.20;;
66741;SDS011;53654;54.152;19.432;2023-12-20T04:07:11;3.80;;;2.50;;
66741;SDS011;53654;54.152;19.432;2023-12-20T04:09:40;3.70;;;2.90;;
66741;SDS011;53654;54.152;19.432;2023-12-20T04:12:08;4.80;;;3.60;;
66741;SDS011;53654;54.152;19.432;2023-12-20T04:14:37;4.00;;;3.60;;
66741;SDS011;53654;54.152;19.432;2023-12-20T04:17:05;4.40;;;3.70;;
66741;SDS011;53654;54.152;19.432;2023-12-20T04:19:33;5.00;;;2.70;;
66741;SDS011;53654;54.152;19.432;2023-12-20T04:22:01;3.90;;;2.50;;
66741;SDS011;53654;54.152;19.432;2023-12-20T04:24:30;3.70;;;2.20;;
66741;SDS011;53654;54.152;19.432;2023-12-20T04:26:57;2.60;;;2.10;;
66741;SDS011;53654;54.152;19.432;2023-12-20T04:29:25;4.30;;;2.10;;
66741;SDS011;53654;54.152;19.432;2023-12-20T04:31:53;4.80;;;2.00;;
66741;SDS011;53654;54.152;19.432;2023-12-20T04:34:21;12.10;;;8.10;;
66741;SDS011;53654;54.152;19.432;2023-12-20T04:36:50;10.40;;;6.60;;
66741;SDS011;53654;54.152;19.432;2023-12-20T04:39:18;5.70;;;3.40;;
66741;SDS011;53654;54.152;19.432;2023-12-20T04:41:46;6.30;;;3.50;;
66741;SDS011;53654;54.152;19.432;2023-12-20T04:44:15;5.80;;;3.40;;
66741;SDS011;53654;54.152;19.432;2023-12-20T04:46:43;5.90;;;3.30;;
66741;SDS011;53654;54.152;19.432;2023-12-20T04:49:11;6.00;;;3.30;;
66741;SDS011;53654;54.152;19.432;2023-12-20T04:51:40;6.90;;;3.80;;
66741;SDS011;53654;54.152;19.432;2023-12-20T04:54:08;6.20;;;3.40;;
66741;SDS011;53654;54.152;19.432;2023-12-20T04:56:37;8.00;;;3.30;;
66741;SDS011;53654;54.152;19.432;2023-12-20T04:59:06;5.30;;;3.20;;
66741;SDS011;53654;54.152;19.432;2023-12-20T05:01:34;5.80;;;3.10;;
66741;SDS011;53654;54.152;19.432;2023-12-20T05:04:02;5.80;;;3.30;;
66741;SDS011;53654;54.152;19.432;2023-12-20T05:06:30;6.20;;;3.70;;
66741;SDS011;53654;54.152;19.432;2023-12-20T05:08:58;7.50;;;4.00;;
66741;SDS011;53654;54.152;19.432;2023-12-20T05:11:27;8.70;;;4.50;;
66741;SDS011;53654;54.152;19.432;2023-12-20T05:13:55;7.80;;;4.30;;
66741;SDS011;53654;54.152;19.432;2023-12-20T05:16:24;8.00;;;4.20;;
66741;SDS011;53654;54.152;19.432;2023-12-20T05:18:52;7.90;;;4.30;;
66741;SDS011;53654;54.152;19.432;2023-12-20T05:21:20;8.30;;;4.30;;
66741;SDS011;53654;54.152;19.432;2023-12-20T05:23:48;7.20;;;4.10;;
66741;SDS011;53654;54.152;19.432;2023-12-20T05:26:16;6.80;;;4.30;;
66741;SDS011;53654;54.152;19.432;2023-12-20T05:28:44;8.10;;;5.20;;
66741;SDS011;53654;54.152;19.432;2023-12-20T05:31:12;8.10;;;5.30;;
66741;SDS011;53654;54.152;19.432;2023-12-20T05:33:41;8.80;;;4.90;;
66741;SDS011;53654;54.152;19.432;2023-12-20T05:36:09;11.80;;;6.90;;
66741;SDS011;53654;54.152;19.432;2023-12-20T05:38:39;20.70;;;11.50;;
66741;SDS011;53654;54.152;19.432;2023-12-20T05:41:07;30.70;;;16.20;;
66741;SDS011;53654;54.152;19.432;2023-12-20T05:43:35;33.90;;;18.10;;
66741;SDS011;53654;54.152;19.432;2023-12-20T05:46:03;26.60;;;15.00;;
66741;SDS011;53654;54.152;19.432;2023-12-20T05:48:31;29.80;;;15.90;;
66741;SDS011;53654;54.152;19.432;2023-12-20T05:50:59;25.10;;;14.40;;
66741;SDS011;53654;54.152;19.432;2023-12-20T05:53:28;19.10;;;14.40;;
66741;SDS011;53654;54.152;19.432;2023-12-20T05:55:56;27.30;;;20.70;;
66741;SDS011;53654;54.152;19.432;2023-12-20T05:58:24;46.00;;;39.30;;
66741;SDS011;53654;54.152;19.432;2023-12-20T06:00:52;120.40;;;104.60;;
66741;SDS011;53654;54.152;19.432;2023-12-20T06:03:20;122.50;;;108.80;;
66741;SDS011;53654;54.152;19.432;2023-12-20T06:05:48;105.50;;;93.50;;
66741;SDS011;53654;54.152;19.432;2023-12-20T06:08:19;93.20;;;82.50;;
66741;SDS011;53654;54.152;19.432;2023-12-20T06:10:48;76.50;;;66.90;;
66741;SDS011;53654;54.152;19.432;2023-12-20T06:13:16;71.40;;;62.20;;
66741;SDS011;53654;54.152;19.432;2023-12-20T06:15:44;63.40;;;56.20;;
66741;SDS011;53654;54.152;19.432;2023-12-20T06:18:13;64.10;;;56.50;;
66741;SDS011;53654;54.152;19.432;2023-12-20T06:20:41;58.80;;;52.10;;
66741;SDS011;53654;54.152;19.432;2023-12-20T06:23:09;53.00;;;46.70;;
66741;SDS011;53654;54.152;19.432;2023-12-20T06:25:38;42.40;;;37.50;;
66741;SDS011;53654;54.152;19.432;2023-12-20T06:28:06;23.70;;;18.50;;
66741;SDS011;53654;54.152;19.432;2023-12-20T06:30:35;20.90;;;18.70;;
66741;SDS011;53654;54.152;19.432;2023-12-20T06:33:04;18.60;;;14.60;;
66741;SDS011;53654;54.152;19.432;2023-12-20T06:35:34;15.60;;;12.90;;
66741;SDS011;53654;54.152;19.432;2023-12-20T06:38:03;15.10;;;11.60;;
66741;SDS011;53654;54.152;19.432;2023-12-20T06:40:32;11.50;;;10.30;;
66741;SDS011;53654;54.152;19.432;2023-12-20T06:43:00;12.80;;;11.00;;
66741;SDS011;53654;54.152;19.432;2023-12-20T06:45:42;13.60;;;11.30;;
66741;SDS011;53654;54.152;19.432;2023-12-20T06:48:10;14.30;;;11.60;;
66741;SDS011;53654;54.152;19.432;2023-12-20T06:50:41;13.90;;;11.80;;
66741;SDS011;53654;54.152;19.432;2023-12-20T06:53:09;14.90;;;12.30;;
66741;SDS011;53654;54.152;19.432;2023-12-20T06:55:37;14.40;;;12.90;;
66741;SDS011;53654;54.152;19.432;2023-12-20T06:58:05;15.60;;;12.90;;
66741;SDS011;53654;54.152;19.432;2023-12-20T07:00:34;14.60;;;13.10;;
66741;SDS011;53654;54.152;19.432;2023-12-20T07:03:03;17.50;;;14.90;;
66741;SDS011;53654;54.152;19.432;2023-12-20T07:05:31;32.00;;;24.00;;
66741;SDS011;53654;54.152;19.432;2023-12-20T07:08:00;32.40;;;24.10;;
66741;SDS011;53654;54.152;19.432;2023-12-20T07:10:29;37.30;;;25.80;;
66741;SDS011;53654;54.152;19.432;2023-12-20T07:12:57;41.70;;;27.70;;
66741;SDS011;53654;54.152;19.432;2023-12-20T07:15:25;39.90;;;27.30;;
66741;SDS011;53654;54.152;19.432;2023-12-20T07:17:55;36.10;;;26.20;;
66741;SDS011;53654;54.152;19.432;2023-12-20T07:20:23;29.50;;;23.50;;
66741;SDS011;53654;54.152;19.432;2023-12-20T07:22:51;27.00;;;21.60;;
66741;SDS011;53654;54.152;19.432;2023-12-20T07:25:19;28.60;;;22.80;;
66741;SDS011;53654;54.152;19.432;2023-12-20T07:27:48;28.20;;;22.00;;
66741;SDS011;53654;54.152;19.432;2023-12-20T07:30:16;25.00;;;21.10;;
66741;SDS011;53654;54.152;19.432;2023-12-20T07:32:45;25.70;;;20.80;;
66741;SDS011;53654;54.152;19.432;2023-12-20T07:35:13;24.40;;;19.50;;
66741;SDS011;53654;54.152;19.432;2023-12-20T07:37:42;20.80;;;18.50;;
66741;SDS011;53654;54.152;19.432;2023-12-20T07:40:11;21.80;;;18.00;;
66741;SDS011;53654;54.152;19.432;2023-12-20T07:42:39;25.90;;;20.80;;
66741;SDS011;53654;54.152;19.432;2023-12-20T07:45:08;23.50;;;18.30;;
66741;SDS011;53654;54.152;19.432;2023-12-20T07:47:38;19.70;;;16.40;;
66741;SDS011;53654;54.152;19.432;2023-12-20T07:50:06;21.90;;;17.70;;
66741;SDS011;53654;54.152;19.432;2023-12-20T07:52:34;21.70;;;16.80;;
66741;SDS011;53654;54.152;19.432;2023-12-20T07:55:03;18.40;;;15.20;;
66741;SDS011;53654;54.152;19.432;2023-12-20T07:57:32;19.50;;;14.70;;
66741;SDS011;53654;54.152;19.432;2023-12-20T08:00:00;17.10;;;14.10;;
66741;SDS011;53654;54.152;19.432;2023-12-20T08:02:31;15.40;;;11.70;;
66741;SDS011;53654;54.152;19.432;2023-12-20T08:04:59;14.30;;;9.80;;
66741;SDS011;53654;54.152;19.432;2023-12-20T08:07:27;12.00;;;9.20;;
66741;SDS011;53654;54.152;19.432;2023-12-20T08:09:55;9.80;;;7.60;;
66741;SDS011;53654;54.152;19.432;2023-12-20T08:12:24;8.40;;;4.70;;
66741;SDS011;53654;54.152;19.432;2023-12-20T08:14:55;8.30;;;5.30;;
66741;SDS011;53654;54.152;19.432;2023-12-20T08:17:24;8.70;;;5.70;;
66741;SDS011;53654;54.152;19.432;2023-12-20T08:19:53;10.60;;;5.80;;
66741;SDS011;53654;54.152;19.432;2023-12-20T08:22:21;7.50;;;4.50;;
66741;SDS011;53654;54.152;19.432;2023-12-20T08:24:50;8.00;;;4.50;;
66741;SDS011;53654;54.152;19.432;2023-12-20T08:27:18;7.40;;;4.60;;
66741;SDS011;53654;54.152;19.432;2023-12-20T08:29:46;9.90;;;5.10;;
66741;SDS011;53654;54.152;19.432;2023-12-20T08:32:14;7.70;;;4.80;;
66741;SDS011;53654;54.152;19.432;2023-12-20T08:34:42;9.40;;;5.40;;
66741;SDS011;53654;54.152;19.432;2023-12-20T08:37:10;8.60;;;5.20;;
66741;SDS011;53654;54.152;19.432;2023-12-20T08:39:38;7.50;;;4.50;;
66741;SDS011;53654;54.152;19.432;2023-12-20T08:42:11;8.00;;;4.60;;
66741;SDS011;53654;54.152;19.432;2023-12-20T08:44:39;8.80;;;5.00;;
66741;SDS011;53654;54.152;19.432;2023-12-20T08:47:07;8.30;;;4.60;;
66741;SDS011;53654;54.152;19.432;2023-12-20T08:49:36;8.80;;;4.90;;
66741;SDS011;53654;54.152;19.432;2023-12-20T08:52:04;7.70;;;4.10;;
66741;SDS011;53654;54.152;19.432;2023-12-20T08:54:33;8.60;;;5.10;;
66741;SDS011;53654;54.152;19.432;2023-12-20T08:57:01;6.90;;;4.80;;
66741;SDS011;53654;54.152;19.432;2023-12-20T08:59:29;8.50;;;5.40;;
66741;SDS011;53654;54.152;19.432;2023-12-20T09:01:58;9.30;;;5.30;;
66741;SDS011;53654;54.152;19.432;2023-12-20T09:04:26;8.20;;;5.30;;
66741;SDS011;53654;54.152;19.432;2023-12-20T09:06:54;8.10;;;5.30;;
66741;SDS011;53654;54.152;19.432;2023-12-20T09:09:23;8.80;;;4.70;;
66741;SDS011;53654;54.152;19.432;2023-12-20T09:11:51;7.50;;;4.50;;
66741;SDS011;53654;54.152;19.432;2023-12-20T09:14:19;6.80;;;4.40;;
66741;SDS011;53654;54.152;19.432;2023-12-20T09:16:47;8.60;;;4.40;;
66741;SDS011;53654;54.152;19.432;2023-12-20T09:19:16;8.10;;;4.60;;
66741;SDS011;53654;54.152;19.432;2023-12-20T09:21:45;7.10;;;4.50;;
66741;SDS011;53654;54.152;19.432;2023-12-20T09:24:14;7.10;;;4.90;;
66741;SDS011;53654;54.152;19.432;2023-12-20T09:26:42;7.70;;;4.90;;
66741;SDS011;53654;54.152;19.432;2023-12-20T09:29:12;7.70;;;4.70;;
66741;SDS011;53654;54.152;19.432;2023-12-20T09:31:43;7.50;;;5.00;;
66741;SDS011;53654;54.152;19.432;2023-12-20T09:34:14;10.40;;;5.50;;
66741;SDS011;53654;54.152;19.432;2023-12-20T09:36:43;7.10;;;5.00;;
66741;SDS011;53654;54.152;19.432;2023-12-20T09:39:16;9.20;;;5.10;;
66741;SDS011;53654;54.152;19.432;2023-12-20T09:41:57;6.30;;;4.60;;
66741;SDS011;53654;54.152;19.432;2023-12-20T09:44:29;7.90;;;4.90;;
66741;SDS011;53654;54.152;19.432;2023-12-20T09:46:59;6.20;;;4.40;;
66741;SDS011;53654;54.152;19.432;2023-12-20T09:49:30;6.70;;;4.30;;
66741;SDS011;53654;54.152;19.432;2023-12-20T09:51:59;8.80;;;4.40;;
66741;SDS011;53654;54.152;19.432;2023-12-20T09:54:28;6.80;;;4.10;;
66741;SDS011;53654;54.152;19.432;2023-12-20T09:56:57;8.50;;;4.10;;
66741;SDS011;53654;54.152;19.432;2023-12-20T09:59:25;6.90;;;4.50;;
66741;SDS011;53654;54.152;19.432;2023-12-20T10:01:54;7.60;;;4.00;;
66741;SDS011;53654;54.152;19.432;2023-12-20T10:04:25;14.70;;;10.40;;
66741;SDS011;53654;54.152;19.432;2023-12-20T10:07:01;8.70;;;6.10;;
66741;SDS011;53654;54.152;19.432;2023-12-20T10:09:33;6.90;;;3.60;;
66741;SDS011;53654;54.152;19.432;2023-12-20T10:12:02;6.90;;;3.90;;
66741;SDS011;53654;54.152;19.432;2023-12-20T10:14:33;6.10;;;3.60;;
66741;SDS011;53654;54.152;19.432;2023-12-20T10:17:02;8.10;;;3.90;;
66741;SDS011;53654;54.152;19.432;2023-12-20T10:19:32;8.20;;;3.70;;
66741;SDS011;53654;54.152;19.432;2023-12-20T10:22:01;7.30;;;3.60;;
66741;SDS011;53654;54.152;19.432;2023-12-20T10:24:32;6.40;;;3.80;;
66741;SDS011;53654;54.152;19.432;2023-12-20T10:27:03;6.50;;;3.60;;
66741;SDS011;53654;54.152;19.432;2023-12-20T10:29:35;6.60;;;3.50;;
66741;SDS011;53654;54.152;19.432;2023-12-20T10:35:06;7.90;;;3.80;;
66741;SDS011;53654;54.152;19.432;2023-12-20T10:37:36;6.60;;;3.80;;
66741;SDS011;53654;54.152;19.432;2023-12-20T10:40:05;7.80;;;3.80;;
66741;SDS011;53654;54.152;19.432;2023-12-20T10:42:34;6.00;;;3.40;;
66741;SDS011;53654;54.152;19.432;2023-12-20T10:45:05;5.10;;;3.20;;
66741;SDS011;53654;54.152;19.432;2023-12-20T10:47:34;7.20;;;3.30;;
66741;SDS011;53654;54.152;19.432;2023-12-20T10:50:07;6.30;;;3.30;;
66741;SDS011;53654;54.152;19.432;2023-12-20T10:52:36;6.00;;;3.40;;
66741;SDS011;53654;54.152;19.432;2023-12-20T10:55:06;6.00;;;3.80;;
66741;SDS011;53654;54.152;19.432;2023-12-20T10:57:35;8.00;;;3.90;;
66741;SDS011;53654;54.152;19.432;2023-12-20T11:00:04;7.20;;;3.90;;
66741;SDS011;53654;54.152;19.432;2023-12-20T11:02:39;6.60;;;4.00;;
66741;SDS011;53654;54.152;19.432;2023-12-20T11:07:47;7.70;;;3.80;;
66741;SDS011;53654;54.152;19.432;2023-12-20T11:10:29;6.30;;;3.50;;
66741;SDS011;53654;54.152;19.432;2023-12-20T11:13:08;6.30;;;3.40;;
66741;SDS011;53654;54.152;19.432;2023-12-20T11:15:51;6.30;;;3.70;;
66741;SDS011;53654;54.152;19.432;2023-12-20T11:18:20;7.00;;;3.60;;
66741;SDS011;53654;54.152;19.432;2023-12-20T11:21:00;6.80;;;3.20;;
66741;SDS011;53654;54.152;19.432;2023-12-20T11:23:31;5.80;;;3.40;;
66741;SDS011;53654;54.152;19.432;2023-12-20T11:26:02;4.80;;;3.20;;
66741;SDS011;53654;54.152;19.432;2023-12-20T11:28:31;6.50;;;3.60;;
66741;SDS011;53654;54.152;19.432;2023-12-20T11:31:00;6.80;;;3.70;;
66741;SDS011;53654;54.152;19.432;2023-12-20T11:33:30;5.50;;;3.30;;
66741;SDS011;53654;54.152;19.432;2023-12-20T11:36:03;6.40;;;3.70;;
66741;SDS011;53654;54.152;19.432;2023-12-20T11:38:56;7.40;;;3.80;;
66741;SDS011;53654;54.152;19.432;2023-12-20T11:41:26;6.70;;;4.40;;
66741;SDS011;53654;54.152;19.432;2023-12-20T11:43:55;10.20;;;5.80;;
66741;SDS011;53654;54.152;19.432;2023-12-20T11:46:24;7.40;;;4.50;;
66741;SDS011;53654;54.152;19.432;2023-12-20T11:48:54;6.00;;;4.30;;
66741;SDS011;53654;54.152;19.432;2023-12-20T11:51:23;8.10;;;5.00;;
66741;SDS011;53654;54.152;19.432;2023-12-20T11:53:54;10.00;;;4.70;;
66741;SDS011;53654;54.152;19.432;2023-12-20T11:56:22;9.60;;;5.10;;
66741;SDS011;53654;54.152;19.432;2023-12-20T11:58:51;9.20;;;6.20;;
66741;SDS011;53654;54.152;19.432;2023-12-20T12:01:19;11.50;;;6.40;;
66741;SDS011;53654;54.152;19.432;2023-12-20T12:03:49;11.60;;;6.10;;
66741;SDS011;53654;54.152;19.432;2023-12-20T12:06:30;13.60;;;8.10;;
66741;SDS011;53654;54.152;19.432;2023-12-20T12:08:59;10.30;;;6.00;;
66741;SDS011;53654;54.152;19.432;2023-12-20T12:11:27;9.10;;;5.60;;
66741;SDS011;53654;54.152;19.432;2023-12-20T12:13:55;7.30;;;4.80;;
66741;SDS011;53654;54.152;19.432;2023-12-20T12:16:24;8.70;;;5.10;;
66741;SDS011;53654;54.152;19.432;2023-12-20T12:18:56;8.60;;;5.10;;
66741;SDS011;53654;54.152;19.432;2023-12-20T12:21:25;8.20;;;4.50;;
66741;SDS011;53654;54.152;19.432;2023-12-20T12:24:09;8.90;;;4.90;;
66741;SDS011;53654;54.152;19.432;2023-12-20T12:26:37;9.80;;;5.40;;
66741;SDS011;53654;54.152;19.432;2023-12-20T12:29:09;8.80;;;5.50;;
66741;SDS011;53654;54.152;19.432;2023-12-20T12:31:37;7.60;;;5.60;;
66741;SDS011;53654;54.152;19.432;2023-12-20T12:34:06;8.30;;;5.60;;
66741;SDS011;53654;54.152;19.432;2023-12-20T12:36:34;9.60;;;6.10;;
66741;SDS011;53654;54.152;19.432;2023-12-20T12:39:02;11.50;;;6.40;;
66741;SDS011;53654;54.152;19.432;2023-12-20T12:41:34;7.90;;;5.40;;
66741;SDS011;53654;54.152;19.432;2023-12-20T12:44:02;9.20;;;5.80;;
66741;SDS011;53654;54.152;19.432;2023-12-20T12:46:41;9.80;;;5.70;;
66741;SDS011;53654;54.152;19.432;2023-12-20T12:49:09;8.10;;;5.80;;
66741;SDS011;53654;54.152;19.432;2023-12-20T12:51:37;8.90;;;6.30;;
66741;SDS011;53654;54.152;19.432;2023-12-20T12:54:06;8.20;;;6.20;;
66741;SDS011;53654;54.152;19.432;2023-12-20T12:56:34;9.90;;;5.60;;
66741;SDS011;53654;54.152;19.432;2023-12-20T12:59:02;7.50;;;5.70;;
66741;SDS011;53654;54.152;19.432;2023-12-20T13:01:30;8.90;;;6.10;;
66741;SDS011;53654;54.152;19.432;2023-12-20T13:03:59;8.00;;;5.70;;
66741;SDS011;53654;54.152;19.432;2023-12-20T13:06:30;7.50;;;5.70;;
66741;SDS011;53654;54.152;19.432;2023-12-20T13:08:59;6.40;;;5.00;;
66741;SDS011;53654;54.152;19.432;2023-12-20T13:11:27;8.10;;;6.10;;
66741;SDS011;53654;54.152;19.432;2023-12-20T13:13:55;6.90;;;5.00;;
66741;SDS011;53654;54.152;19.432;2023-12-20T13:16:23;6.80;;;5.60;;
66741;SDS011;53654;54.152;19.432;2023-12-20T13:18:53;7.80;;;5.40;;
66741;SDS011;53654;54.152;19.432;2023-12-20T13:21:21;6.60;;;4.70;;
66741;SDS011;53654;54.152;19.432;2023-12-20T13:23:49;6.30;;;4.10;;
66741;SDS011;53654;54.152;19.432;2023-12-20T13:26:18;5.30;;;4.00;;
66741;SDS011;53654;54.152;19.432;2023-12-20T13:28:46;7.00;;;4.20;;
66741;SDS011;53654;54.152;19.432;2023-12-20T13:31:14;4.80;;;3.90;;
66741;SDS011;53654;54.152;19.432;2023-12-20T13:33:42;5.40;;;3.80;;
66741;SDS011;53654;54.152;19.432;2023-12-20T13:36:10;6.70;;;4.20;;
66741;SDS011;53654;54.152;19.432;2023-12-20T13:38:39;5.70;;;4.10;;
66741;SDS011;53654;54.152;19.432;2023-12-20T13:41:07;5.80;;;4.30;;
66741;SDS011;53654;54.152;19.432;2023-12-20T13:43:35;5.50;;;4.20;;
66741;SDS011;53654;54.152;19.432;2023-12-20T13:46:04;4.60;;;4.10;;
66741;SDS011;53654;54.152;19.432;2023-12-20T13:48:32;4.80;;;3.80;;
66741;SDS011;53654;54.152;19.432;2023-12-20T13:51:00;6.50;;;4.00;;
66741;SDS011;53654;54.152;19.432;2023-12-20T13:53:30;5.10;;;3.90;;
66741;SDS011;53654;54.152;19.432;2023-12-20T13:55:59;4.10;;;3.70;;
66741;SDS011;53654;54.152;19.432;2023-12-20T13:58:27;4.90;;;3.60;;
66741;SDS011;53654;54.152;19.432;2023-12-20T14:00:56;5.50;;;3.80;;
66741;SDS011;53654;54.152;19.432;2023-12-20T14:03:24;4.80;;;3.70;;
66741;SDS011;53654;54.152;19.432;2023-12-20T14:05:52;4.30;;;3.40;;
66741;SDS011;53654;54.152;19.432;2023-12-20T14:08:20;6.50;;;4.20;;
66741;SDS011;53654;54.152;19.432;2023-12-20T14:10:48;5.30;;;3.90;;
66741;SDS011;53654;54.152;19.432;2023-12-20T14:13:16;5.00;;;3.60;;
66741;SDS011;53654;54.152;19.432;2023-12-20T14:15:44;5.20;;;3.80;;
66741;SDS011;53654;54.152;19.432;2023-12-20T14:18:14;5.60;;;3.30;;
66741;SDS011;53654;54.152;19.432;2023-12-20T14:20:43;5.30;;;3.70;;
66741;SDS011;53654;54.152;19.432;2023-12-20T14:23:12;4.20;;;3.80;;
66741;SDS011;53654;54.152;19.432;2023-12-20T14:25:42;4.80;;;4.30;;
66741;SDS011;53654;54.152;19.432;2023-12-20T14:28:19;4.00;;;3.50;;
66741;SDS011;53654;54.152;19.432;2023-12-20T14:30:47;4.60;;;3.90;;
66741;SDS011;53654;54.152;19.432;2023-12-20T14:33:17;5.30;;;3.90;;
66741;SDS011;53654;54.152;19.432;2023-12-20T14:35:47;4.80;;;3.60;;
66741;SDS011;53654;54.152;19.432;2023-12-20T14:38:15;4.20;;;3.40;;
66741;SDS011;53654;54.152;19.432;2023-12-20T14:40:43;3.90;;;3.20;;
66741;SDS011;53654;54.152;19.432;2023-12-20T14:43:12;4.50;;;3.10;;
66741;SDS011;53654;54.152;19.432;2023-12-20T14:45:40;3.70;;;3.30;;